Time,TemperatureF,DewpointF,PressureIn,WindDirection,WindDirectionDegrees,WindSpeedMPH,WindSpeedGustMPH,Humidity,HourlyPrecipIn,Conditions,Clouds,dailyrainin,SoftwareType,DateUTC
2013-08-13 00:01:00,69.3,66.2,29.91,SW,234,2.3,2.3,90,0.00,RA,,0.00,WeatherDisplay:10.37,2013-08-13 04:01:00,
2013-08-13 00:02:00,69.3,66.2,29.91,SW,234,5.0,5.0,90,0.00,RA,,0.00,WeatherDisplay:10.37,2013-08-13 04:02:00,
2013-08-13 00:03:00,69.3,66.2,29.91,SW,234,4.6,4.6,90,0.00,RA,,0.00,WeatherDisplay:10.37,2013-08-13 04:03:00,
2013-08-13 00:08:00,69.3,66.2,29.91,SW,235,3.5,3.5,90,0.00,RA,,0.00,WeatherDisplay:10.37,2013-08-13 04:08:00,
2013-08-13 00:13:00,69.3,66.2,29.92,SW,234,5.0,5.0,90,0.00,OVC,,0.00,WeatherDisplay:10.37,2013-08-13 04:13:00,
2013-08-13 00:18:00,69.3,66.2,29.91,SW,235,5.0,5.0,90,0.00,OVC,,0.00,WeatherDisplay:10.37,2013-08-13 04:18:00,
2013-08-13 00:23:00,69.3,66.2,29.91,SW,235,1.1,0.0,90,0.00,OVC,,0.00,WeatherDisplay:10.37,2013-08-13 04:23:00,
2013-08-13 00:28:00,69.4,66.3,29.91,SW,235,3.5,3.5,90,0.00,OVC,,0.00,WeatherDisplay:10.37,2013-08-13 04:28:00,
2013-08-13 00:33:00,69.4,66.3,29.91,SW,236,3.5,3.5,90,0.00,OVC,,0.00,WeatherDisplay:10.37,2013-08-13 04:33:00,
2013-08-13 00:38:00,69.4,66.3,29.91,SW,236,3.5,3.5,90,0.00,OVC,,0.00,WeatherDisplay:10.37,2013-08-13 04:38:00,
2013-08-13 00:43:00,69.5,66.4,29.91,SW,236,3.5,3.5,90,0.00,OVC,,0.00,WeatherDisplay:10.37,2013-08-13 04:43:00,
2013-08-13 00:48:00,69.5,66.4,29.91,SW,236,1.0,0.0,90,0.00,OVC,,0.00,WeatherDisplay:10.37,2013-08-13 04:48:00,
2013-08-13 00:53:00,69.4,66.3,29.91,SW,236,1.1,1.1,90,0.00,OVC,,0.00,WeatherDisplay:10.37,2013-08-13 04:53:00,
2013-08-13 00:58:00,69.4,66.3,29.91,SW,236,2.3,2.3,90,0.00,OVC,,0.00,WeatherDisplay:10.37,2013-08-13 04:58:00,
2013-08-13 01:03:00,69.4,66.3,29.91,SW,236,2.0,2.0,90,0.00,OVC,,0.00,WeatherDisplay:10.37,2013-08-13 05:03:00,
2013-08-13 01:08:00,69.4,66.3,29.91,SW,236,0.0,0.0,90,0.00,OVC,,0.00,WeatherDisplay:10.37,2013-08-13 05:08:00,
2013-08-13 01:13:00,69.3,66.2,29.91,SW,236,2.0,2.0,90,0.00,OVC,,0.00,WeatherDisplay:10.37,2013-08-13 05:13:00,
2013-08-13 01:18:00,69.3,66.2,29.91,SW,236,0.0,0.0,90,0.00,OVC,,0.00,WeatherDisplay:10.37,2013-08-13 05:18:00,
2013-08-13 01:23:00,69.3,66.2,29.91,SW,236,1.1,1.1,90,0.00,OVC,,0.00,WeatherDisplay:10.37,2013-08-13 05:23:00,
2013-08-13 01:28:00,69.2,66.1,29.91,SW,236,1.1,1.1,90,0.00,OVC,,0.00,WeatherDisplay:10.37,2013-08-13 05:28:00,
2013-08-13 01:33:00,69.2,66.1,29.90,SW,236,1.1,1.1,90,0.00,OVC,,0.00,WeatherDisplay:10.37,2013-08-13 05:33:00,
2013-08-13 01:38:00,69.2,66.1,29.90,SW,236,3.5,3.5,90,0.00,OVC,,0.00,WeatherDisplay:10.37,2013-08-13 05:38:00,
2013-08-13 01:43:00,69.2,66.1,29.90,SW,236,0.0,0.0,90,0.00,OVC,,0.00,WeatherDisplay:10.37,2013-08-13 05:43:00,
2013-08-13 01:48:00,69.2,66.1,29.90,SW,236,1.0,0.0,90,0.00,OVC,,0.00,WeatherDisplay:10.37,2013-08-13 05:48:00,
2013-08-13 01:53:00,69.2,66.1,29.90,SW,236,0.0,0.0,90,0.00,OVC,,0.00,WeatherDisplay:10.37,2013-08-13 05:53:00,
2013-08-13 01:58:00,69.2,66.1,29.90,SW,236,0.0,0.0,90,0.00,OVC,,0.00,WeatherDisplay:10.37,2013-08-13 05:58:00,
2013-08-13 02:03:00,69.2,66.1,29.90,SW,236,2.0,2.0,90,0.00,BKN,,0.00,WeatherDisplay:10.37,2013-08-13 06:03:00,
2013-08-13 02:08:00,69.1,66.0,29.90,SW,236,2.3,0.0,90,0.00,BKN,,0.00,WeatherDisplay:10.37,2013-08-13 06:08:00,
2013-08-13 02:13:00,69.2,66.1,29.90,SW,236,3.5,3.5,90,0.00,BKN,,0.00,WeatherDisplay:10.37,2013-08-13 06:13:00,
2013-08-13 02:18:00,69.2,66.1,29.90,SW,236,2.3,2.3,90,0.00,BKN,,0.00,WeatherDisplay:10.37,2013-08-13 06:18:00,
2013-08-13 02:23:00,69.3,66.2,29.90,SW,236,1.1,1.1,90,0.00,BKN,,0.00,WeatherDisplay:10.37,2013-08-13 06:23:00,
2013-08-13 02:28:00,69.2,66.1,29.89,SW,236,1.1,1.1,90,0.00,BKN,,0.00,WeatherDisplay:10.37,2013-08-13 06:28:00,
2013-08-13 02:33:00,69.2,66.1,29.89,SW,236,3.5,3.5,90,0.00,BKN,,0.00,WeatherDisplay:10.37,2013-08-13 06:33:00,
2013-08-13 02:38:00,69.2,66.1,29.89,SW,236,1.1,1.1,90,0.00,BKN,,0.00,WeatherDisplay:10.37,2013-08-13 06:38:00,
2013-08-13 02:43:00,69.2,66.1,29.89,SW,236,3.5,3.5,90,0.00,BKN,,0.00,WeatherDisplay:10.37,2013-08-13 06:43:00,
2013-08-13 02:48:00,69.2,66.1,29.89,SW,236,4.0,4.0,90,0.00,BKN,,0.00,WeatherDisplay:10.37,2013-08-13 06:48:00,
2013-08-13 02:53:00,69.2,66.1,29.89,SW,236,1.1,0.0,90,0.00,BKN,,0.00,WeatherDisplay:10.37,2013-08-13 06:53:00,
2013-08-13 02:58:00,69.2,66.1,29.89,SW,236,2.3,2.3,90,0.00,BKN,,0.00,WeatherDisplay:10.37,2013-08-13 06:58:00,
2013-08-13 03:03:00,69.1,66.0,29.89,SW,236,1.1,1.1,90,0.00,OVC,,0.00,WeatherDisplay:10.37,2013-08-13 07:03:00,
2013-08-13 03:08:00,69.1,66.0,29.89,SW,236,3.5,3.5,90,0.00,OVC,,0.00,WeatherDisplay:10.37,2013-08-13 07:08:00,
2013-08-13 03:13:00,69.1,66.0,29.89,SW,236,4.0,4.0,90,0.00,OVC,,0.00,WeatherDisplay:10.37,2013-08-13 07:13:00,
2013-08-13 03:18:00,69.0,65.9,29.89,SW,236,5.0,5.0,90,0.00,OVC,,0.00,WeatherDisplay:10.37,2013-08-13 07:18:00,
2013-08-13 03:23:00,69.0,65.9,29.89,SW,236,3.5,3.5,90,0.00,OVC,,0.00,WeatherDisplay:10.37,2013-08-13 07:23:00,
2013-08-13 03:28:00,69.0,65.9,29.89,SW,236,3.5,3.5,90,0.00,OVC,,0.00,WeatherDisplay:10.37,2013-08-13 07:28:00,
2013-08-13 03:33:00,69.1,66.0,29.89,SW,236,2.3,2.3,90,0.00,OVC,,0.00,WeatherDisplay:10.37,2013-08-13 07:33:00,
2013-08-13 03:38:00,69.1,66.0,29.89,SW,236,3.5,3.5,90,0.00,OVC,,0.00,WeatherDisplay:10.37,2013-08-13 07:38:00,
2013-08-13 03:43:00,69.1,66.0,29.88,SW,236,3.5,3.5,90,0.00,OVC,,0.00,WeatherDisplay:10.37,2013-08-13 07:43:00,
2013-08-13 03:48:00,69.1,66.0,29.88,SW,236,4.0,4.0,90,0.00,OVC,,0.00,WeatherDisplay:10.37,2013-08-13 07:48:00,
2013-08-13 03:53:00,69.1,66.0,29.88,SW,236,6.0,6.0,90,0.00,OVC,,0.00,WeatherDisplay:10.37,2013-08-13 07:53:00,
2013-08-13 03:58:00,69.2,66.1,29.88,SW,236,4.0,4.0,90,0.00,OVC,,0.00,WeatherDisplay:10.37,2013-08-13 07:58:00,
2013-08-13 04:03:00,69.2,66.1,29.88,SW,236,0.0,0.0,90,0.00,OVC,,0.00,WeatherDisplay:10.37,2013-08-13 08:03:00,
2013-08-13 04:08:00,69.2,66.1,29.88,SW,236,2.3,2.3,90,0.00,OVC,,0.00,WeatherDisplay:10.37,2013-08-13 08:08:00,
2013-08-13 04:13:00,69.2,66.1,29.88,SW,236,1.1,1.1,90,0.00,OVC,,0.00,WeatherDisplay:10.37,2013-08-13 08:13:00,
2013-08-13 04:18:00,69.2,66.1,29.88,SW,236,2.0,2.0,90,0.00,OVC,,0.00,WeatherDisplay:10.37,2013-08-13 08:18:00,
2013-08-13 04:23:00,69.1,66.0,29.88,SW,236,0.0,0.0,90,0.00,OVC,,0.00,WeatherDisplay:10.37,2013-08-13 08:23:00,
2013-08-13 04:28:00,69.1,66.0,29.87,SW,236,3.0,3.0,90,0.00,OVC,,0.00,WeatherDisplay:10.37,2013-08-13 08:28:00,
2013-08-13 04:33:00,69.1,66.0,29.88,SW,236,1.1,0.0,90,0.00,OVC,,0.00,WeatherDisplay:10.37,2013-08-13 08:33:00,
2013-08-13 04:38:00,69.0,65.9,29.88,SW,236,3.5,3.5,90,0.00,OVC,,0.00,WeatherDisplay:10.37,2013-08-13 08:38:00,
2013-08-13 04:43:00,69.0,65.9,29.87,SW,236,1.0,0.0,90,0.00,OVC,,0.00,WeatherDisplay:10.37,2013-08-13 08:43:00,
2013-08-13 04:48:00,69.0,65.9,29.87,SW,236,0.0,0.0,90,0.00,OVC,,0.00,WeatherDisplay:10.37,2013-08-13 08:48:00,
2013-08-13 04:53:00,69.0,65.9,29.88,SW,236,4.0,4.0,90,0.00,OVC,,0.00,WeatherDisplay:10.37,2013-08-13 08:53:00,
2013-08-13 04:58:00,68.9,65.8,29.87,SW,236,4.0,4.0,90,0.00,OVC,,0.00,WeatherDisplay:10.37,2013-08-13 08:58:00,
2013-08-13 05:03:00,68.9,65.8,29.88,SW,236,3.5,0.0,90,0.00,OVC,,0.00,WeatherDisplay:10.37,2013-08-13 09:03:00,
2013-08-13 05:08:00,68.9,65.8,29.88,SW,236,2.3,2.3,90,0.00,OVC,,0.00,WeatherDisplay:10.37,2013-08-13 09:08:00,
2013-08-13 05:13:00,68.9,65.8,29.88,SW,236,0.0,0.0,90,0.00,OVC,,0.00,WeatherDisplay:10.37,2013-08-13 09:13:00,
2013-08-13 05:18:00,69.0,65.9,29.88,SW,236,4.0,4.0,90,0.00,OVC,,0.00,WeatherDisplay:10.37,2013-08-13 09:18:00,
2013-08-13 05:23:00,69.0,65.9,29.88,SW,236,3.5,3.5,90,0.00,OVC,,0.00,WeatherDisplay:10.37,2013-08-13 09:23:00,
2013-08-13 05:28:00,69.0,65.9,29.88,WSW,237,1.1,1.1,90,0.00,OVC,,0.00,WeatherDisplay:10.37,2013-08-13 09:28:00,
2013-08-13 05:33:00,69.0,65.9,29.88,SW,236,4.6,4.6,90,0.00,OVC,,0.00,WeatherDisplay:10.37,2013-08-13 09:33:00,
2013-08-13 05:38:00,69.0,65.9,29.88,SW,236,2.3,0.0,90,0.00,OVC,,0.00,WeatherDisplay:10.37,2013-08-13 09:38:00,
2013-08-13 05:43:00,69.0,65.9,29.88,SW,236,3.5,3.5,90,0.00,OVC,,0.00,WeatherDisplay:10.37,2013-08-13 09:43:00,
2013-08-13 05:48:00,69.0,65.9,29.88,SW,236,4.0,4.0,90,0.00,OVC,,0.00,WeatherDisplay:10.37,2013-08-13 09:48:00,
2013-08-13 05:53:00,68.9,65.8,29.88,SW,236,1.1,0.0,90,0.00,OVC,,0.00,WeatherDisplay:10.37,2013-08-13 09:53:00,
2013-08-13 05:58:00,68.9,65.8,29.88,SW,236,4.0,4.0,90,0.00,OVC,,0.00,WeatherDisplay:10.37,2013-08-13 09:58:00,
2013-08-13 06:03:00,68.9,65.8,29.88,SW,236,3.5,3.5,90,0.00,OVC,,0.00,WeatherDisplay:10.37,2013-08-13 10:03:00,
2013-08-13 06:08:00,69.0,65.9,29.88,SW,236,5.0,5.0,90,0.00,OVC,,0.00,WeatherDisplay:10.37,2013-08-13 10:08:00,
2013-08-13 06:13:00,69.0,65.9,29.88,WSW,243,5.8,5.8,90,0.00,OVC,,0.00,WeatherDisplay:10.37,2013-08-13 10:13:00,
2013-08-13 06:18:00,69.0,65.9,29.88,WSW,243,3.5,3.5,90,0.00,OVC,,0.00,WeatherDisplay:10.37,2013-08-13 10:18:00,
2013-08-13 06:23:00,69.0,65.9,29.88,WSW,243,2.3,2.3,90,0.00,OVC,,0.00,WeatherDisplay:10.37,2013-08-13 10:23:00,
2013-08-13 06:28:00,69.0,65.9,29.89,WSW,243,2.3,0.0,90,0.00,OVC,,0.00,WeatherDisplay:10.37,2013-08-13 10:28:00,
2013-08-13 06:33:00,69.0,65.9,29.89,WSW,243,1.1,0.0,90,0.00,OVC,,0.00,WeatherDisplay:10.37,2013-08-13 10:33:00,
2013-08-13 06:38:00,68.9,65.8,29.89,WSW,243,0.0,0.0,90,0.00,OVC,,0.00,WeatherDisplay:10.37,2013-08-13 10:38:00,
2013-08-13 06:43:00,68.9,65.8,29.89,WSW,243,1.1,1.1,90,0.00,OVC,,0.00,WeatherDisplay:10.37,2013-08-13 10:43:00,
2013-08-13 06:48:00,68.9,65.8,29.89,WSW,243,1.1,1.1,90,0.00,OVC,,0.00,WeatherDisplay:10.37,2013-08-13 10:48:00,
2013-08-13 06:53:00,68.9,65.8,29.89,WSW,243,0.0,0.0,90,0.00,OVC,,0.00,WeatherDisplay:10.37,2013-08-13 10:53:00,
2013-08-13 06:58:00,68.8,65.7,29.89,WSW,243,1.0,1.0,90,0.00,OVC,,0.00,WeatherDisplay:10.37,2013-08-13 10:58:00,
2013-08-13 07:03:00,68.9,65.8,29.89,WSW,243,0.0,0.0,90,0.00,OVC,,0.00,WeatherDisplay:10.37,2013-08-13 11:03:00,
2013-08-13 07:08:00,68.9,65.8,29.89,WSW,243,3.5,3.5,90,0.00,OVC,,0.00,WeatherDisplay:10.37,2013-08-13 11:08:00,
2013-08-13 07:13:00,68.9,65.8,29.89,WSW,243,1.1,1.1,90,0.00,OVC,,0.00,WeatherDisplay:10.37,2013-08-13 11:13:00,
2013-08-13 07:18:00,68.9,65.8,29.89,WSW,243,1.1,0.0,90,0.00,OVC,,0.00,WeatherDisplay:10.37,2013-08-13 11:18:00,
2013-08-13 07:23:00,68.9,65.8,29.90,WSW,243,0.0,0.0,90,0.00,OVC,,0.00,WeatherDisplay:10.37,2013-08-13 11:23:00,
2013-08-13 07:28:00,68.9,65.8,29.90,WSW,243,0.0,0.0,90,0.00,OVC,,0.00,WeatherDisplay:10.37,2013-08-13 11:28:00,
2013-08-13 07:33:00,68.9,65.8,29.89,WSW,243,0.0,0.0,90,0.01,RA,,0.01,WeatherDisplay:10.37,2013-08-13 11:33:00,
2013-08-13 07:38:00,68.9,65.8,29.89,WSW,243,1.1,0.0,90,0.02,RA,,0.02,WeatherDisplay:10.37,2013-08-13 11:38:00,
2013-08-13 07:43:00,68.9,65.8,29.90,WSW,243,0.0,0.0,90,0.02,RA,,0.02,WeatherDisplay:10.37,2013-08-13 11:43:00,
2013-08-13 07:49:00,68.8,65.7,29.89,WSW,243,0.0,0.0,90,0.02,OVC,,0.02,WeatherDisplay:10.37,2013-08-13 11:49:00,
2013-08-13 07:54:00,68.8,65.7,29.89,WSW,243,0.0,0.0,90,0.02,OVC,,0.02,WeatherDisplay:10.37,2013-08-13 11:54:00,
2013-08-13 07:59:00,68.8,65.7,29.90,WSW,243,0.0,0.0,90,0.02,OVC,,0.02,WeatherDisplay:10.37,2013-08-13 11:59:00,
2013-08-13 08:04:00,68.9,65.8,29.90,WSW,243,0.0,0.0,90,0.02,OVC,,0.02,WeatherDisplay:10.37,2013-08-13 12:04:00,
2013-08-13 08:09:00,69.0,65.9,29.90,WSW,243,0.0,0.0,90,0.02,OVC,,0.02,WeatherDisplay:10.37,2013-08-13 12:09:00,
2013-08-13 08:14:00,69.0,65.9,29.90,WSW,243,0.0,0.0,90,0.02,OVC,,0.02,WeatherDisplay:10.37,2013-08-13 12:14:00,
2013-08-13 08:19:00,69.1,66.0,29.90,WSW,243,0.0,0.0,90,0.02,OVC,,0.02,WeatherDisplay:10.37,2013-08-13 12:19:00,
2013-08-13 08:24:00,69.2,66.1,29.90,WSW,243,1.1,0.0,90,0.02,OVC,,0.02,WeatherDisplay:10.37,2013-08-13 12:24:00,
2013-08-13 08:29:00,69.3,66.2,29.90,WSW,243,0.0,0.0,90,0.02,OVC,,0.02,WeatherDisplay:10.37,2013-08-13 12:29:00,
2013-08-13 08:34:00,69.4,66.3,29.90,WSW,243,0.0,0.0,90,0.01,OVC,,0.02,WeatherDisplay:10.37,2013-08-13 12:34:00,
2013-08-13 08:39:00,69.5,66.4,29.90,WSW,243,1.0,1.0,90,0.00,OVC,,0.02,WeatherDisplay:10.37,2013-08-13 12:39:00,
2013-08-13 08:44:00,69.6,66.5,29.90,WSW,243,1.1,1.1,90,0.00,OVC,,0.02,WeatherDisplay:10.37,2013-08-13 12:44:00,
2013-08-13 08:49:00,69.5,66.4,29.90,WSW,243,1.1,0.0,90,0.00,OVC,,0.02,WeatherDisplay:10.37,2013-08-13 12:49:00,
2013-08-13 08:54:00,69.5,66.4,29.91,WSW,243,3.5,3.5,90,0.00,OVC,,0.02,WeatherDisplay:10.37,2013-08-13 12:54:00,
2013-08-13 08:59:00,69.6,66.5,29.91,WSW,243,0.0,0.0,90,0.00,OVC,,0.02,WeatherDisplay:10.37,2013-08-13 12:59:00,
2013-08-13 09:04:00,69.7,66.6,29.91,WSW,243,2.3,2.3,90,0.00,OVC,,0.02,WeatherDisplay:10.37,2013-08-13 13:04:00,
2013-08-13 09:07:00,69.9,66.8,29.91,WSW,243,0.0,0.0,90,0.00,OVC,,0.02,WeatherDisplay:10.37,2013-08-13 13:07:00,
2013-08-13 09:12:00,69.9,66.8,29.91,WSW,243,1.1,0.0,90,0.00,OVC,,0.02,WeatherDisplay:10.37,2013-08-13 13:12:00,
2013-08-13 09:17:00,70.1,67.0,29.91,WSW,243,1.1,1.1,90,0.00,OVC,,0.02,WeatherDisplay:10.37,2013-08-13 13:17:00,
2013-08-13 09:22:00,70.4,67.3,29.91,WSW,243,1.1,0.0,90,0.00,OVC,,0.02,WeatherDisplay:10.37,2013-08-13 13:22:00,
2013-08-13 09:27:00,70.6,67.5,29.91,WSW,243,2.3,2.3,90,0.00,OVC,,0.02,WeatherDisplay:10.37,2013-08-13 13:27:00,
2013-08-13 09:32:00,70.7,67.6,29.91,WSW,243,3.0,3.0,90,0.00,OVC,,0.02,WeatherDisplay:10.37,2013-08-13 13:32:00,
2013-08-13 09:37:00,71.0,67.9,29.92,WSW,243,0.0,0.0,90,0.00,OVC,,0.02,WeatherDisplay:10.37,2013-08-13 13:37:00,
2013-08-13 09:42:00,71.1,68.0,29.91,WSW,245,4.0,4.0,90,0.00,OVC,,0.02,WeatherDisplay:10.37,2013-08-13 13:42:00,
2013-08-13 09:47:00,71.3,68.2,29.91,WSW,244,2.3,2.3,90,0.00,OVC,,0.02,WeatherDisplay:10.37,2013-08-13 13:47:00,
2013-08-13 09:52:00,71.4,68.3,29.92,WSW,244,1.1,0.0,90,0.00,OVC,,0.02,WeatherDisplay:10.37,2013-08-13 13:52:00,
2013-08-13 09:57:00,71.5,68.4,29.91,WSW,245,1.0,0.0,90,0.00,OVC,,0.02,WeatherDisplay:10.37,2013-08-13 13:57:00,
2013-08-13 10:02:00,71.6,68.5,29.91,WSW,245,2.3,0.0,90,0.00,OVC,,0.02,WeatherDisplay:10.37,2013-08-13 14:02:00,
2013-08-13 10:07:00,71.5,68.4,29.92,WSW,250,2.3,2.3,90,0.00,OVC,,0.02,WeatherDisplay:10.37,2013-08-13 14:07:00,
2013-08-13 10:12:00,71.5,68.4,29.92,WSW,250,2.3,2.3,90,0.00,OVC,,0.02,WeatherDisplay:10.37,2013-08-13 14:12:00,
2013-08-13 10:17:00,71.5,68.4,29.92,WSW,249,2.3,2.3,90,0.00,OVC,,0.02,WeatherDisplay:10.37,2013-08-13 14:17:00,
2013-08-13 10:22:00,71.5,68.4,29.92,WSW,249,3.5,3.5,90,0.00,OVC,,0.02,WeatherDisplay:10.37,2013-08-13 14:22:00,
2013-08-13 10:27:00,71.6,68.5,29.93,WSW,252,3.5,3.5,90,0.00,OVC,,0.02,WeatherDisplay:10.37,2013-08-13 14:27:00,
2013-08-13 10:32:00,71.7,68.6,29.93,WSW,255,4.0,4.0,90,0.00,OVC,,0.02,WeatherDisplay:10.37,2013-08-13 14:32:00,
2013-08-13 10:38:00,71.7,68.6,29.93,WSW,255,3.5,0.0,90,0.00,OVC,,0.02,WeatherDisplay:10.37,2013-08-13 14:38:00,
2013-08-13 10:43:00,71.8,68.4,29.93,WSW,255,3.0,3.0,89,0.00,OVC,,0.02,WeatherDisplay:10.37,2013-08-13 14:43:00,
2013-08-13 10:48:00,72.0,68.9,29.93,WSW,255,1.1,1.1,90,0.00,OVC,,0.02,WeatherDisplay:10.37,2013-08-13 14:48:00,
2013-08-13 10:53:00,72.2,68.8,29.93,WSW,255,2.3,2.3,89,0.00,OVC,,0.02,WeatherDisplay:10.37,2013-08-13 14:53:00,
2013-08-13 10:58:00,72.5,69.1,29.93,WSW,257,2.0,2.0,89,0.00,OVC,,0.02,WeatherDisplay:10.37,2013-08-13 14:58:00,
2013-08-13 11:03:00,73.1,69.3,29.93,WSW,257,4.0,4.0,88,0.00,BKN,,0.02,WeatherDisplay:10.37,2013-08-13 15:03:00,
2013-08-13 11:08:00,73.4,69.6,29.93,West,259,4.0,4.0,88,0.00,BKN,,0.02,WeatherDisplay:10.37,2013-08-13 15:08:00,
2013-08-13 11:13:00,73.9,69.4,29.93,West,272,5.0,5.0,86,0.00,BKN,,0.02,WeatherDisplay:10.37,2013-08-13 15:13:00,
2013-08-13 11:18:00,74.1,69.0,29.93,West,272,4.0,4.0,84,0.00,BKN,,0.02,WeatherDisplay:10.37,2013-08-13 15:18:00,
2013-08-13 11:23:00,74.2,68.7,29.93,West,273,3.5,3.5,83,0.00,BKN,,0.02,WeatherDisplay:10.37,2013-08-13 15:23:00,
2013-08-13 11:28:00,74.5,69.0,29.93,West,273,3.5,3.5,83,0.00,BKN,,0.02,WeatherDisplay:10.37,2013-08-13 15:28:00,
2013-08-13 11:33:00,74.7,68.8,29.93,West,272,5.0,5.0,82,0.00,BKN,,0.02,WeatherDisplay:10.37,2013-08-13 15:33:00,
2013-08-13 11:38:00,75.0,69.1,29.93,West,273,3.5,3.5,82,0.00,BKN,,0.02,WeatherDisplay:10.37,2013-08-13 15:38:00,
2013-08-13 11:43:00,75.4,69.2,29.93,West,273,4.0,4.0,81,0.00,BKN,,0.02,WeatherDisplay:10.37,2013-08-13 15:43:00,
2013-08-13 11:48:00,75.5,68.9,29.93,West,272,0.0,0.0,80,0.00,BKN,,0.02,WeatherDisplay:10.37,2013-08-13 15:48:00,
2013-08-13 11:53:00,75.9,69.3,29.93,West,273,1.0,1.0,80,0.00,BKN,,0.02,WeatherDisplay:10.37,2013-08-13 15:53:00,
2013-08-13 11:58:00,75.8,68.8,29.93,West,276,2.0,2.0,79,0.00,BKN,,0.02,WeatherDisplay:10.37,2013-08-13 15:58:00,
2013-08-13 12:03:00,76.2,68.8,29.93,West,276,4.0,4.0,78,0.00,BKN,,0.02,WeatherDisplay:10.37,2013-08-13 16:03:00,
2013-08-13 12:08:00,76.4,68.7,29.93,West,276,1.0,1.0,77,0.00,BKN,,0.02,WeatherDisplay:10.37,2013-08-13 16:08:00,
2013-08-13 12:13:00,76.7,68.9,29.93,NNW,336,6.0,6.0,77,0.00,BKN,,0.02,WeatherDisplay:10.37,2013-08-13 16:13:00,
2013-08-13 12:18:00,76.6,68.5,29.93,NNW,336,3.5,3.5,76,0.00,BKN,,0.02,WeatherDisplay:10.37,2013-08-13 16:18:00,
2013-08-13 12:23:00,76.1,68.4,29.93,NNW,339,5.0,5.0,77,0.00,BKN,,0.02,WeatherDisplay:10.37,2013-08-13 16:23:00,
2013-08-13 12:28:00,75.9,68.5,29.93,NNW,340,3.0,3.0,78,0.00,BKN,,0.02,WeatherDisplay:10.37,2013-08-13 16:28:00,
2013-08-13 12:33:00,75.8,68.4,29.93,NNW,336,4.6,4.6,78,0.00,BKN,,0.02,WeatherDisplay:10.37,2013-08-13 16:33:00,
2013-08-13 12:38:00,75.8,68.8,29.93,WSW,258,5.0,5.0,79,0.00,BKN,,0.02,WeatherDisplay:10.37,2013-08-13 16:38:00,
2013-08-13 12:43:00,75.9,68.9,29.93,WSW,258,5.0,5.0,79,0.00,BKN,,0.02,WeatherDisplay:10.37,2013-08-13 16:43:00,
2013-08-13 12:48:00,76.2,68.8,29.93,WSW,250,7.0,7.0,78,0.00,BKN,,0.02,WeatherDisplay:10.37,2013-08-13 16:48:00,
2013-08-13 12:53:00,76.2,68.8,29.93,WSW,251,8.1,8.1,78,0.00,BKN,,0.02,WeatherDisplay:10.37,2013-08-13 16:53:00,
2013-08-13 12:58:00,76.0,69.0,29.92,West,271,4.6,4.6,79,0.00,BKN,,0.02,WeatherDisplay:10.37,2013-08-13 16:58:00,
2013-08-13 13:03:00,76.0,69.0,29.92,West,271,4.0,4.0,79,0.00,OVC,,0.02,WeatherDisplay:10.37,2013-08-13 17:03:00,
2013-08-13 13:08:00,75.8,68.8,29.92,West,268,1.1,1.1,79,0.00,OVC,,0.02,WeatherDisplay:10.37,2013-08-13 17:08:00,
2013-08-13 13:13:00,76.0,69.0,29.92,West,267,9.2,9.2,79,0.00,OVC,,0.02,WeatherDisplay:10.37,2013-08-13 17:13:00,
2013-08-13 13:18:00,76.0,69.0,29.92,West,267,2.0,2.0,79,0.00,OVC,,0.02,WeatherDisplay:10.37,2013-08-13 17:18:00,
2013-08-13 13:23:00,75.8,69.6,29.92,West,268,1.1,1.1,81,0.01,RA,,0.03,WeatherDisplay:10.37,2013-08-13 17:23:00,
2013-08-13 13:28:00,75.4,69.5,29.92,West,268,3.0,3.0,82,0.03,RA,,0.05,WeatherDisplay:10.37,2013-08-13 17:28:00,
2013-08-13 13:33:00,74.9,69.4,29.92,West,268,2.3,2.3,83,0.03,RA,,0.05,WeatherDisplay:10.37,2013-08-13 17:33:00,
2013-08-13 13:38:00,74.6,69.4,29.92,West,268,3.0,3.0,84,0.03,OVC,,0.05,WeatherDisplay:10.37,2013-08-13 17:38:00,
2013-08-13 13:43:00,74.8,70.0,29.92,West,268,3.5,3.5,85,0.03,OVC,,0.05,WeatherDisplay:10.37,2013-08-13 17:43:00,
2013-08-13 13:48:00,75.3,70.5,29.92,West,268,2.0,0.0,85,0.03,OVC,,0.05,WeatherDisplay:10.37,2013-08-13 17:48:00,
2013-08-13 13:53:00,75.6,70.8,29.92,West,268,0.0,0.0,85,0.03,OVC,,0.05,WeatherDisplay:10.37,2013-08-13 17:53:00,
2013-08-13 13:58:00,75.7,70.2,29.92,West,278,3.5,3.5,83,0.03,OVC,,0.05,WeatherDisplay:10.37,2013-08-13 17:58:00,
2013-08-13 14:03:00,75.8,69.9,29.92,West,280,4.0,4.0,82,0.03,BKN,,0.05,WeatherDisplay:10.37,2013-08-13 18:03:00,
2013-08-13 14:08:00,76.0,69.7,29.92,WNW,295,3.5,3.5,81,0.03,BKN,,0.05,WeatherDisplay:10.37,2013-08-13 18:08:00,
2013-08-13 14:13:00,76.3,69.7,29.92,WNW,295,5.0,5.0,80,0.03,BKN,,0.05,WeatherDisplay:10.37,2013-08-13 18:13:00,
2013-08-13 14:18:00,76.6,69.6,29.91,NW,317,4.0,4.0,79,0.03,BKN,,0.05,WeatherDisplay:10.37,2013-08-13 18:18:00,
2013-08-13 14:23:00,76.8,69.4,29.91,NW,321,2.3,2.3,78,0.02,BKN,,0.05,WeatherDisplay:10.37,2013-08-13 18:23:00,
2013-08-13 14:28:00,76.9,69.1,29.91,NW,322,2.3,2.3,77,0.00,BKN,,0.05,WeatherDisplay:10.37,2013-08-13 18:28:00,
2013-08-13 14:33:00,76.5,68.7,29.91,NNE,22,6.0,6.0,77,0.00,BKN,,0.05,WeatherDisplay:10.37,2013-08-13 18:33:00,
2013-08-13 14:38:00,76.1,68.7,29.91,NNE,12,2.3,2.3,78,0.00,BKN,,0.05,WeatherDisplay:10.37,2013-08-13 18:38:00,
2013-08-13 14:43:00,75.9,68.2,29.91,NNE,22,4.6,4.6,77,0.00,BKN,,0.05,WeatherDisplay:10.37,2013-08-13 18:43:00,
2013-08-13 14:48:00,76.0,67.9,29.92,NE,35,4.6,4.6,76,0.00,BKN,,0.05,WeatherDisplay:10.37,2013-08-13 18:48:00,
2013-08-13 14:53:00,76.3,68.2,29.91,NE,36,5.0,5.0,76,0.00,BKN,,0.05,WeatherDisplay:10.37,2013-08-13 18:53:00,
2013-08-13 14:58:00,76.4,68.7,29.91,NE,53,8.1,8.1,77,0.00,BKN,,0.05,WeatherDisplay:10.37,2013-08-13 18:58:00,
2013-08-13 15:03:00,76.4,68.7,29.91,NE,49,5.0,5.0,77,0.00,-RA,,0.05,WeatherDisplay:10.37,2013-08-13 19:03:00,
2013-08-13 15:08:00,76.4,67.9,29.91,NE,54,2.3,2.3,75,0.00,-RA,,0.05,WeatherDisplay:10.37,2013-08-13 19:08:00,
2013-08-13 15:13:00,76.4,67.9,29.91,NE,51,5.0,5.0,75,0.00,-RA,,0.05,WeatherDisplay:10.37,2013-08-13 19:13:00,
2013-08-13 15:18:00,76.2,67.3,29.91,NE,38,6.0,6.0,74,0.00,-RA,,0.05,WeatherDisplay:10.37,2013-08-13 19:18:00,
2013-08-13 15:23:00,76.2,67.3,29.92,NE,47,7.0,7.0,74,0.00,-RA,,0.05,WeatherDisplay:10.37,2013-08-13 19:23:00,
2013-08-13 15:28:00,76.7,68.2,29.91,NE,35,6.0,6.0,75,0.00,-RA,,0.05,WeatherDisplay:10.37,2013-08-13 19:28:00,
2013-08-13 15:33:00,76.6,67.3,29.92,NNE,31,11.5,11.5,73,0.00,-RA,,0.05,WeatherDisplay:10.37,2013-08-13 19:33:00,
2013-08-13 15:38:00,76.4,67.5,29.92,NE,47,5.0,5.0,74,0.00,-RA,,0.05,WeatherDisplay:10.37,2013-08-13 19:38:00,
2013-08-13 15:43:00,76.6,66.9,29.92,NE,41,12.0,12.0,72,0.00,-RA,,0.05,WeatherDisplay:10.37,2013-08-13 19:43:00,
2013-08-13 15:48:00,76.4,66.7,29.92,ENE,70,13.0,13.0,72,0.00,-RA,,0.05,WeatherDisplay:10.37,2013-08-13 19:48:00,
2013-08-13 15:53:00,76.4,66.7,29.92,NE,51,6.9,6.9,72,0.00,-RA,,0.05,WeatherDisplay:10.37,2013-08-13 19:53:00,
2013-08-13 15:58:00,76.7,66.6,29.92,NNE,29,5.0,5.0,71,0.00,-RA,,0.05,WeatherDisplay:10.37,2013-08-13 19:58:00,
2013-08-13 16:03:00,76.9,66.8,29.92,NE,49,7.0,7.0,71,0.00,SCT,,0.05,WeatherDisplay:10.37,2013-08-13 20:03:00,
2013-08-13 16:08:00,76.6,65.7,29.92,NE,44,11.5,11.5,69,0.00,SCT,,0.05,WeatherDisplay:10.37,2013-08-13 20:08:00,
2013-08-13 16:11:00,76.5,66.0,29.92,NE,53,8.1,8.1,70,0.00,SCT,,0.05,WeatherDisplay:10.37,2013-08-13 20:11:00,
2013-08-13 16:16:00,76.4,66.3,29.92,NE,56,5.0,5.0,71,0.00,SCT,,0.05,WeatherDisplay:10.37,2013-08-13 20:16:00,
2013-08-13 16:21:00,76.5,66.0,29.92,NNE,19,9.2,9.2,70,0.00,SCT,,0.05,WeatherDisplay:10.37,2013-08-13 20:21:00,
2013-08-13 16:26:00,76.9,65.5,29.92,NE,41,11.5,11.5,68,0.00,SCT,,0.05,WeatherDisplay:10.37,2013-08-13 20:26:00,
2013-08-13 16:31:00,76.9,66.0,29.91,ENE,66,4.0,4.0,69,0.00,SCT,,0.05,WeatherDisplay:10.37,2013-08-13 20:31:00,
2013-08-13 16:36:00,77.1,66.1,29.91,NE,52,11.5,11.5,69,0.00,SCT,,0.05,WeatherDisplay:10.37,2013-08-13 20:36:00,
2013-08-13 16:41:00,77.1,66.6,29.91,NE,35,5.0,5.0,70,0.00,SCT,,0.05,WeatherDisplay:10.37,2013-08-13 20:41:00,
2013-08-13 16:46:00,77.3,66.3,29.91,NE,41,3.0,3.0,69,0.00,SCT,,0.05,WeatherDisplay:10.37,2013-08-13 20:46:00,
2013-08-13 16:51:00,77.3,66.3,29.92,NE,42,6.0,6.0,69,0.00,SCT,,0.05,WeatherDisplay:10.37,2013-08-13 20:51:00,
2013-08-13 16:56:00,77.3,66.3,29.92,NE,39,6.0,6.0,69,0.00,SCT,,0.05,WeatherDisplay:10.37,2013-08-13 20:56:00,
2013-08-13 17:01:00,77.7,65.9,29.92,NE,51,8.1,8.1,67,0.00,SCT,,0.05,WeatherDisplay:10.37,2013-08-13 21:01:00,
2013-08-13 17:06:00,77.9,66.1,29.92,NE,35,6.9,6.9,67,0.00,FEW,,0.05,WeatherDisplay:10.37,2013-08-13 21:06:00,
2013-08-13 17:11:00,77.9,66.1,29.92,NE,50,9.0,9.0,67,0.00,FEW,,0.05,WeatherDisplay:10.37,2013-08-13 21:11:00,
2013-08-13 17:16:00,77.6,66.2,29.92,NE,53,3.5,3.5,68,0.00,FEW,,0.05,WeatherDisplay:10.37,2013-08-13 21:16:00,
2013-08-13 17:21:00,77.5,66.1,29.92,NE,47,7.0,7.0,68,0.00,FEW,,0.05,WeatherDisplay:10.37,2013-08-13 21:21:00,
2013-08-13 17:26:00,77.2,65.4,29.92,ENE,58,12.0,12.0,67,0.00,FEW,,0.05,WeatherDisplay:10.37,2013-08-13 21:26:00,
2013-08-13 17:31:00,76.9,65.1,29.92,NE,44,10.4,10.4,67,0.00,FEW,,0.05,WeatherDisplay:10.37,2013-08-13 21:31:00,
2013-08-13 17:36:00,76.8,65.4,29.92,North,7,4.6,4.6,68,0.00,FEW,,0.05,WeatherDisplay:10.37,2013-08-13 21:36:00,
2013-08-13 17:41:00,76.8,65.4,29.92,NE,44,5.0,5.0,68,0.00,FEW,,0.05,WeatherDisplay:10.37,2013-08-13 21:41:00,
2013-08-13 17:46:00,76.9,65.5,29.92,NE,51,11.5,11.5,68,0.00,FEW,,0.05,WeatherDisplay:10.37,2013-08-13 21:46:00,
2013-08-13 17:51:00,76.9,65.5,29.92,NE,52,10.4,10.4,68,0.00,FEW,,0.05,WeatherDisplay:10.37,2013-08-13 21:51:00,
2013-08-13 17:56:00,76.8,65.4,29.92,NE,45,6.0,6.0,68,0.00,FEW,,0.05,WeatherDisplay:10.37,2013-08-13 21:56:00,
2013-08-13 18:01:00,76.9,65.5,29.92,NE,44,8.1,8.1,68,0.00,FEW,,0.05,WeatherDisplay:10.37,2013-08-13 22:01:00,
2013-08-13 18:06:00,77.0,65.2,29.92,NE,56,11.0,11.0,67,0.00,SCT,,0.05,WeatherDisplay:10.37,2013-08-13 22:06:00,
2013-08-13 18:11:00,77.0,64.8,29.92,NE,51,10.4,10.4,66,0.00,SCT,,0.05,WeatherDisplay:10.37,2013-08-13 22:11:00,
2013-08-13 18:16:00,76.9,64.7,29.92,NE,44,5.8,5.8,66,0.00,SCT,,0.05,WeatherDisplay:10.37,2013-08-13 22:16:00,
2013-08-13 18:21:00,76.9,65.5,29.92,NE,47,8.0,8.0,68,0.00,SCT,,0.05,WeatherDisplay:10.37,2013-08-13 22:21:00,
2013-08-13 18:26:00,76.7,64.5,29.92,ENE,61,11.5,11.5,66,0.00,SCT,,0.05,WeatherDisplay:10.37,2013-08-13 22:26:00,
2013-08-13 18:31:00,76.4,64.6,29.92,ENE,58,8.1,8.1,67,0.00,SCT,,0.05,WeatherDisplay:10.37,2013-08-13 22:31:00,
2013-08-13 18:36:00,76.2,64.0,29.92,ENE,63,11.0,11.0,66,0.00,SCT,,0.05,WeatherDisplay:10.37,2013-08-13 22:36:00,
2013-08-13 18:41:00,75.7,63.1,29.92,ENE,62,8.1,8.1,65,0.00,SCT,,0.05,WeatherDisplay:10.37,2013-08-13 22:41:00,
2013-08-13 18:46:00,75.4,63.2,29.92,NNE,31,8.1,8.1,66,0.00,SCT,,0.05,WeatherDisplay:10.37,2013-08-13 22:46:00,
2013-08-13 18:51:00,75.1,63.4,29.92,NE,50,7.0,7.0,67,0.00,SCT,,0.05,WeatherDisplay:10.37,2013-08-13 22:51:00,
2013-08-13 18:56:00,74.9,63.2,29.92,NNE,23,6.0,6.0,67,0.00,SCT,,0.05,WeatherDisplay:10.37,2013-08-13 22:56:00,
2013-08-13 19:01:00,74.8,63.5,29.92,NNE,29,4.6,4.6,68,0.00,SCT,,0.05,WeatherDisplay:10.37,2013-08-13 23:01:00,
2013-08-13 19:06:00,74.7,63.4,29.92,NE,34,3.5,3.5,68,0.00,CLR,,0.05,WeatherDisplay:10.37,2013-08-13 23:06:00,
2013-08-13 19:11:00,74.8,63.9,29.92,NE,34,3.5,3.5,69,0.00,CLR,,0.05,WeatherDisplay:10.37,2013-08-13 23:11:00,
2013-08-13 19:16:00,74.7,63.9,29.92,NE,42,5.8,5.8,69,0.00,CLR,,0.05,WeatherDisplay:10.37,2013-08-13 23:16:00,
2013-08-13 19:21:00,74.5,63.7,29.92,NE,53,5.0,5.0,69,0.00,CLR,,0.05,WeatherDisplay:10.37,2013-08-13 23:21:00,
2013-08-13 19:26:00,74.4,63.6,29.93,ENE,58,8.0,8.0,69,0.00,CLR,,0.05,WeatherDisplay:10.37,2013-08-13 23:26:00,
2013-08-13 19:31:00,74.2,63.0,29.93,NE,55,6.0,6.0,68,0.00,CLR,,0.05,WeatherDisplay:10.37,2013-08-13 23:31:00,
2013-08-13 19:36:00,74.2,62.5,29.93,NE,41,7.0,7.0,67,0.00,CLR,,0.05,WeatherDisplay:10.37,2013-08-13 23:36:00,
2013-08-13 19:41:00,74.0,62.8,29.93,NE,45,4.0,4.0,68,0.00,CLR,,0.05,WeatherDisplay:10.37,2013-08-13 23:41:00,
2013-08-13 19:46:00,73.9,62.7,29.93,NE,45,3.5,3.5,68,0.00,CLR,,0.05,WeatherDisplay:10.37,2013-08-13 23:46:00,
2013-08-13 19:51:00,73.7,62.9,29.93,NE,45,6.0,6.0,69,0.00,CLR,,0.05,WeatherDisplay:10.37,2013-08-13 23:51:00,
2013-08-13 19:56:00,73.5,62.7,29.93,NE,45,4.0,4.0,69,0.00,CLR,,0.05,WeatherDisplay:10.37,2013-08-13 23:56:00,
2013-08-13 20:01:00,73.3,62.9,29.94,NE,45,5.0,5.0,70,0.00,CLR,,0.05,WeatherDisplay:10.37,2013-08-14 00:01:00,
2013-08-13 20:06:00,73.1,62.7,29.94,NE,46,3.5,3.5,70,0.00,CLR,,0.05,WeatherDisplay:10.37,2013-08-14 00:06:00,
2013-08-13 20:11:00,73.0,62.6,29.94,NE,45,5.8,5.8,70,0.00,CLR,,0.05,WeatherDisplay:10.37,2013-08-14 00:11:00,
2013-08-13 20:16:00,72.7,62.3,29.94,NNE,32,5.0,5.0,70,0.00,CLR,,0.05,WeatherDisplay:10.37,2013-08-14 00:16:00,
2013-08-13 20:21:00,72.5,62.6,29.94,NE,37,4.0,4.0,71,0.00,CLR,,0.05,WeatherDisplay:10.37,2013-08-14 00:21:00,
2013-08-13 20:26:00,72.3,62.4,29.94,NE,38,4.6,4.6,71,0.00,CLR,,0.05,WeatherDisplay:10.37,2013-08-14 00:26:00,
2013-08-13 20:31:00,72.1,62.2,29.95,NE,40,6.0,6.0,71,0.00,CLR,,0.05,WeatherDisplay:10.37,2013-08-14 00:31:00,
2013-08-13 20:36:00,71.9,62.0,29.95,NE,40,4.0,4.0,71,0.00,CLR,,0.05,WeatherDisplay:10.37,2013-08-14 00:36:00,
2013-08-13 20:41:00,71.6,62.1,29.95,NE,37,2.0,2.0,72,0.00,CLR,,0.05,WeatherDisplay:10.37,2013-08-14 00:41:00,
2013-08-13 20:46:00,71.4,61.9,29.95,NE,38,4.0,4.0,72,0.00,CLR,,0.05,WeatherDisplay:10.37,2013-08-14 00:46:00,
2013-08-13 20:51:00,71.2,61.7,29.95,NE,38,3.5,3.5,72,0.00,CLR,,0.05,WeatherDisplay:10.37,2013-08-14 00:51:00,
2013-08-13 20:56:00,71.0,61.9,29.95,NE,39,5.0,5.0,73,0.00,CLR,,0.05,WeatherDisplay:10.37,2013-08-14 00:56:00,
2013-08-13 21:01:00,70.7,62.0,29.95,NE,39,2.3,2.3,74,0.00,CLR,,0.05,WeatherDisplay:10.37,2013-08-14 01:01:00,
2013-08-13 21:06:00,70.4,61.7,29.95,NE,39,5.0,5.0,74,0.00,CLR,,0.05,WeatherDisplay:10.37,2013-08-14 01:06:00,
2013-08-13 21:11:00,70.2,61.5,29.95,NE,42,6.0,6.0,74,0.00,CLR,,0.05,WeatherDisplay:10.37,2013-08-14 01:11:00,
2013-08-13 21:16:00,70.0,61.3,29.96,NE,41,4.0,4.0,74,0.00,CLR,,0.05,WeatherDisplay:10.37,2013-08-14 01:16:00,
2013-08-13 21:21:00,69.7,61.0,29.96,NE,43,5.0,5.0,74,0.00,CLR,,0.05,WeatherDisplay:10.37,2013-08-14 01:21:00,
2013-08-13 21:26:00,69.6,60.6,29.96,NE,42,2.3,2.3,73,0.00,CLR,,0.05,WeatherDisplay:10.37,2013-08-14 01:26:00,
2013-08-13 21:31:00,69.4,60.4,29.96,NE,43,5.0,5.0,73,0.00,CLR,,0.05,WeatherDisplay:10.37,2013-08-14 01:31:00,
2013-08-13 21:36:00,69.3,60.3,29.97,NE,48,7.0,7.0,73,0.00,CLR,,0.05,WeatherDisplay:10.37,2013-08-14 01:36:00,
2013-08-13 21:41:00,69.1,60.1,29.97,NE,51,4.0,4.0,73,0.00,CLR,,0.05,WeatherDisplay:10.37,2013-08-14 01:41:00,
2013-08-13 21:46:00,68.9,59.9,29.97,NE,50,5.0,5.0,73,0.00,CLR,,0.05,WeatherDisplay:10.37,2013-08-14 01:46:00,
2013-08-13 21:51:00,68.8,60.2,29.97,NE,49,3.5,3.5,74,0.00,CLR,,0.05,WeatherDisplay:10.37,2013-08-14 01:51:00,
2013-08-13 21:56:00,68.5,59.9,29.98,NE,50,4.6,4.6,74,0.00,CLR,,0.05,WeatherDisplay:10.37,2013-08-14 01:56:00,
2013-08-13 22:01:00,68.3,59.7,29.98,NE,50,2.0,2.0,74,0.00,CLR,,0.05,WeatherDisplay:10.37,2013-08-14 02:01:00,
2013-08-13 22:06:00,68.1,59.9,29.98,NE,50,3.5,3.5,75,0.00,CLR,,0.05,WeatherDisplay:10.37,2013-08-14 02:06:00,
2013-08-13 22:11:00,67.8,60.0,29.99,NE,50,3.0,3.0,76,0.00,CLR,,0.05,WeatherDisplay:10.37,2013-08-14 02:11:00,
2013-08-13 22:16:00,67.6,59.8,29.99,NE,48,5.0,5.0,76,0.00,CLR,,0.05,WeatherDisplay:10.37,2013-08-14 02:16:00,
2013-08-13 22:21:00,67.5,60.0,30.00,NE,38,6.0,6.0,77,0.00,CLR,,0.05,WeatherDisplay:10.37,2013-08-14 02:21:00,
2013-08-13 22:26:00,67.4,59.9,29.99,NE,41,6.0,6.0,77,0.00,CLR,,0.05,WeatherDisplay:10.37,2013-08-14 02:26:00,
2013-08-13 22:31:00,67.2,59.7,30.00,NE,51,7.0,7.0,77,0.00,CLR,,0.05,WeatherDisplay:10.37,2013-08-14 02:31:00,
2013-08-13 22:36:00,66.9,59.8,30.00,NE,53,5.0,5.0,78,0.00,CLR,,0.05,WeatherDisplay:10.37,2013-08-14 02:36:00,
2013-08-13 22:41:00,66.7,59.6,30.00,NE,43,6.0,6.0,78,0.00,CLR,,0.05,WeatherDisplay:10.37,2013-08-14 02:41:00,
2013-08-13 22:46:00,66.4,59.3,30.00,NE,41,6.0,6.0,78,0.00,CLR,,0.05,WeatherDisplay:10.37,2013-08-14 02:46:00,
2013-08-13 22:51:00,66.1,59.4,30.00,NE,41,5.0,5.0,79,0.00,CLR,,0.05,WeatherDisplay:10.37,2013-08-14 02:51:00,
2013-08-13 22:56:00,65.9,59.2,30.00,NE,41,9.0,9.0,79,0.00,CLR,,0.05,WeatherDisplay:10.37,2013-08-14 02:56:00,
2013-08-13 23:01:00,65.7,58.7,30.01,NE,55,8.1,8.1,78,0.00,CLR,,0.05,WeatherDisplay:10.37,2013-08-14 03:01:00,
2013-08-13 23:06:00,65.5,58.5,30.01,NE,43,7.0,7.0,78,0.00,CLR,,0.05,WeatherDisplay:10.37,2013-08-14 03:06:00,
2013-08-13 23:11:00,65.3,57.9,30.01,NE,51,8.1,8.1,77,0.00,CLR,,0.05,WeatherDisplay:10.37,2013-08-14 03:11:00,
2013-08-13 23:16:00,65.2,57.4,30.01,ENE,59,8.0,8.0,76,0.00,CLR,,0.05,WeatherDisplay:10.37,2013-08-14 03:16:00,
2013-08-13 23:21:00,65.0,57.2,30.01,NE,56,8.0,8.0,76,0.00,CLR,,0.05,WeatherDisplay:10.37,2013-08-14 03:21:00,
2013-08-13 23:26:00,64.9,57.2,30.01,ENE,60,6.0,6.0,76,0.00,CLR,,0.05,WeatherDisplay:10.37,2013-08-14 03:26:00,
2013-08-13 23:31:00,64.8,57.1,30.01,NE,55,5.0,5.0,76,0.00,CLR,,0.05,WeatherDisplay:10.37,2013-08-14 03:31:00,
2013-08-13 23:36:00,64.6,56.9,30.01,NE,55,3.5,3.5,76,0.00,CLR,,0.05,WeatherDisplay:10.37,2013-08-14 03:36:00,
2013-08-13 23:41:00,64.5,56.4,30.01,NE,54,2.3,2.3,75,0.00,CLR,,0.05,WeatherDisplay:10.37,2013-08-14 03:41:00,
2013-08-13 23:46:00,64.4,56.3,30.01,NE,54,5.0,5.0,75,0.00,CLR,,0.05,WeatherDisplay:10.37,2013-08-14 03:46:00,
2013-08-13 23:51:00,64.2,56.5,30.02,NE,53,4.0,4.0,76,0.00,CLR,,0.05,WeatherDisplay:10.37,2013-08-14 03:51:00,
2013-08-13 23:56:00,64.0,56.3,30.02,NE,54,3.5,3.5,76,0.00,CLR,,0.05,WeatherDisplay:10.37,2013-08-14 03:56:00,